sensor_id;sensor_type;location;lat;lon;timestamp;temperature;humidity
27781;DHT22;15167;1.318;103.762;2023-05-21T00:00:25;23.70;99.90
27781;DHT22;15167;1.318;103.762;2023-05-21T00:02:51;23.70;99.90
27781;DHT22;15167;1.318;103.762;2023-05-21T00:05:18;23.60;99.90
27781;DHT22;15167;1.318;103.762;2023-05-21T00:07:46;23.60;99.90
27781;DHT22;15167;1.318;103.762;2023-05-21T00:10:12;23.70;99.90
27781;DHT22;15167;1.318;103.762;2023-05-21T00:12:38;23.70;99.90
27781;DHT22;15167;1.318;103.762;2023-05-21T00:15:04;23.80;99.90
27781;DHT22;15167;1.318;103.762;2023-05-21T00:17:31;23.80;99.90
27781;DHT22;15167;1.318;103.762;2023-05-21T00:19:58;24.20;99.90
27781;DHT22;15167;1.318;103.762;2023-05-21T00:22:24;24.40;99.90
27781;DHT22;15167;1.318;103.762;2023-05-21T00:24:50;24.50;99.90
27781;DHT22;15167;1.318;103.762;2023-05-21T00:27:16;24.70;99.90
27781;DHT22;15167;1.318;103.762;2023-05-21T00:29:42;24.70;99.90
27781;DHT22;15167;1.318;103.762;2023-05-21T00:32:09;24.80;99.90
27781;DHT22;15167;1.318;103.762;2023-05-21T00:34:35;25.00;1.00
27781;DHT22;15167;1.318;103.762;2023-05-21T00:37:01;25.30;1.00
27781;DHT22;15167;1.318;103.762;2023-05-21T00:39:27;25.60;1.00
27781;DHT22;15167;1.318;103.762;2023-05-21T00:41:54;25.80;1.00
27781;DHT22;15167;1.318;103.762;2023-05-21T00:44:21;25.90;1.00
27781;DHT22;15167;1.318;103.762;2023-05-21T00:46:48;25.90;1.00
27781;DHT22;15167;1.318;103.762;2023-05-21T00:49:18;25.80;1.00
27781;DHT22;15167;1.318;103.762;2023-05-21T00:51:47;25.90;1.00
27781;DHT22;15167;1.318;103.762;2023-05-21T00:54:13;26.00;1.00
27781;DHT22;15167;1.318;103.762;2023-05-21T00:56:39;26.10;1.00
27781;DHT22;15167;1.318;103.762;2023-05-21T00:59:06;26.20;1.00
27781;DHT22;15167;1.318;103.762;2023-05-21T01:01:32;26.20;1.00
27781;DHT22;15167;1.318;103.762;2023-05-21T01:04:01;26.30;1.00
27781;DHT22;15167;1.318;103.762;2023-05-21T01:06:27;26.40;99.90
27781;DHT22;15167;1.318;103.762;2023-05-21T01:08:57;26.60;99.90
27781;DHT22;15167;1.318;103.762;2023-05-21T01:11:29;26.70;99.90
27781;DHT22;15167;1.318;103.762;2023-05-21T01:13:58;26.80;99.90
27781;DHT22;15167;1.318;103.762;2023-05-21T01:16:24;27.00;99.90
27781;DHT22;15167;1.318;103.762;2023-05-21T01:18:50;27.00;99.90
27781;DHT22;15167;1.318;103.762;2023-05-21T01:21:19;27.20;99.90
27781;DHT22;15167;1.318;103.762;2023-05-21T01:23:46;27.30;99.90
27781;DHT22;15167;1.318;103.762;2023-05-21T01:26:12;27.50;99.90
27781;DHT22;15167;1.318;103.762;2023-05-21T01:28:38;27.60;99.90
27781;DHT22;15167;1.318;103.762;2023-05-21T01:31:09;27.80;99.90
27781;DHT22;15167;1.318;103.762;2023-05-21T01:33:46;27.80;99.90
27781;DHT22;15167;1.318;103.762;2023-05-21T01:36:17;27.70;99.90
27781;DHT22;15167;1.318;103.762;2023-05-21T01:39:01;27.70;99.90
27781;DHT22;15167;1.318;103.762;2023-05-21T01:41:32;27.80;99.90
27781;DHT22;15167;1.318;103.762;2023-05-21T01:43:59;27.90;99.90
27781;DHT22;15167;1.318;103.762;2023-05-21T01:46:30;28.00;99.90
27781;DHT22;15167;1.318;103.762;2023-05-21T01:48:58;28.10;99.90
27781;DHT22;15167;1.318;103.762;2023-05-21T01:51:24;28.10;99.90
27781;DHT22;15167;1.318;103.762;2023-05-21T01:53:51;28.10;99.90
27781;DHT22;15167;1.318;103.762;2023-05-21T01:56:17;28.10;99.90
27781;DHT22;15167;1.318;103.762;2023-05-21T01:58:43;28.30;99.90
27781;DHT22;15167;1.318;103.762;2023-05-21T02:01:09;28.20;99.90
27781;DHT22;15167;1.318;103.762;2023-05-21T02:03:36;28.30;99.90
27781;DHT22;15167;1.318;103.762;2023-05-21T02:06:03;28.30;99.90
27781;DHT22;15167;1.318;103.762;2023-05-21T02:08:29;28.40;99.90
27781;DHT22;15167;1.318;103.762;2023-05-21T02:10:55;28.50;99.90
27781;DHT22;15167;1.318;103.762;2023-05-21T02:13:21;28.50;99.90
27781;DHT22;15167;1.318;103.762;2023-05-21T02:15:49;28.40;99.90
27781;DHT22;15167;1.318;103.762;2023-05-21T02:18:19;28.20;99.90
27781;DHT22;15167;1.318;103.762;2023-05-21T02:20:46;28.10;99.90
27781;DHT22;15167;1.318;103.762;2023-05-21T02:23:12;28.10;99.90
27781;DHT22;15167;1.318;103.762;2023-05-21T02:25:38;28.20;99.90
27781;DHT22;15167;1.318;103.762;2023-05-21T02:28:04;28.30;99.90
27781;DHT22;15167;1.318;103.762;2023-05-21T02:30:31;28.30;99.90
27781;DHT22;15167;1.318;103.762;2023-05-21T02:32:57;28.50;99.90
27781;DHT22;15167;1.318;103.762;2023-05-21T02:35:23;28.60;99.90
27781;DHT22;15167;1.318;103.762;2023-05-21T02:37:49;28.60;99.90
27781;DHT22;15167;1.318;103.762;2023-05-21T02:40:16;28.80;99.90
27781;DHT22;15167;1.318;103.762;2023-05-21T02:42:42;29.00;99.90
27781;DHT22;15167;1.318;103.762;2023-05-21T02:45:08;29.10;99.90
27781;DHT22;15167;1.318;103.762;2023-05-21T02:47:35;29.10;99.90
27781;DHT22;15167;1.318;103.762;2023-05-21T02:50:04;29.00;99.90
27781;DHT22;15167;1.318;103.762;2023-05-21T02:52:30;28.90;99.90
27781;DHT22;15167;1.318;103.762;2023-05-21T02:54:56;29.10;99.90
27781;DHT22;15167;1.318;103.762;2023-05-21T02:57:23;29.20;99.90
27781;DHT22;15167;1.318;103.762;2023-05-21T02:59:49;29.40;99.90
27781;DHT22;15167;1.318;103.762;2023-05-21T03:02:15;29.70;99.90
27781;DHT22;15167;1.318;103.762;2023-05-21T03:04:41;29.80;99.90
27781;DHT22;15167;1.318;103.762;2023-05-21T03:07:14;30.00;99.90
27781;DHT22;15167;1.318;103.762;2023-05-21T03:09:42;30.10;99.90
27781;DHT22;15167;1.318;103.762;2023-05-21T03:12:08;30.20;99.90
27781;DHT22;15167;1.318;103.762;2023-05-21T03:14:35;30.00;99.90
27781;DHT22;15167;1.318;103.762;2023-05-21T03:17:01;29.80;99.90
27781;DHT22;15167;1.318;103.762;2023-05-21T03:19:33;29.60;99.90
27781;DHT22;15167;1.318;103.762;2023-05-21T03:22:00;29.50;99.90
27781;DHT22;15167;1.318;103.762;2023-05-21T03:24:27;29.40;99.90
27781;DHT22;15167;1.318;103.762;2023-05-21T03:26:55;29.20;99.90
27781;DHT22;15167;1.318;103.762;2023-05-21T03:29:21;29.10;99.90
27781;DHT22;15167;1.318;103.762;2023-05-21T03:31:48;28.90;99.90
27781;DHT22;15167;1.318;103.762;2023-05-21T03:34:14;28.70;99.90
27781;DHT22;15167;1.318;103.762;2023-05-21T03:36:41;28.40;99.90
27781;DHT22;15167;1.318;103.762;2023-05-21T03:39:07;28.10;99.90
27781;DHT22;15167;1.318;103.762;2023-05-21T03:41:33;27.80;99.90
27781;DHT22;15167;1.318;103.762;2023-05-21T03:43:59;27.60;1.00
27781;DHT22;15167;1.318;103.762;2023-05-21T03:46:25;27.50;1.00
27781;DHT22;15167;1.318;103.762;2023-05-21T03:48:52;27.50;1.00
27781;DHT22;15167;1.318;103.762;2023-05-21T03:51:18;27.50;1.00
27781;DHT22;15167;1.318;103.762;2023-05-21T03:53:45;27.50;1.00
27781;DHT22;15167;1.318;103.762;2023-05-21T03:56:12;27.50;1.00
27781;DHT22;15167;1.318;103.762;2023-05-21T03:58:38;27.50;1.00
27781;DHT22;15167;1.318;103.762;2023-05-21T04:01:04;27.60;1.00
27781;DHT22;15167;1.318;103.762;2023-05-21T04:03:30;27.60;1.00
27781;DHT22;15167;1.318;103.762;2023-05-21T04:06:00;27.60;1.00
27781;DHT22;15167;1.318;103.762;2023-05-21T04:08:26;27.60;1.00
27781;DHT22;15167;1.318;103.762;2023-05-21T04:10:52;27.60;1.00
27781;DHT22;15167;1.318;103.762;2023-05-21T04:13:18;27.60;1.00
27781;DHT22;15167;1.318;103.762;2023-05-21T04:15:45;27.60;1.00
27781;DHT22;15167;1.318;103.762;2023-05-21T04:18:11;27.60;1.00
27781;DHT22;15167;1.318;103.762;2023-05-21T04:20:38;27.60;1.00
27781;DHT22;15167;1.318;103.762;2023-05-21T04:23:04;27.60;1.00
27781;DHT22;15167;1.318;103.762;2023-05-21T04:25:30;27.70;2.80
27781;DHT22;15167;1.318;103.762;2023-05-21T04:27:56;27.70;1.00
27781;DHT22;15167;1.318;103.762;2023-05-21T04:30:22;27.70;1.00
27781;DHT22;15167;1.318;103.762;2023-05-21T04:32:48;27.70;1.00
27781;DHT22;15167;1.318;103.762;2023-05-21T04:35:15;27.80;1.00
27781;DHT22;15167;1.318;103.762;2023-05-21T04:37:41;27.90;1.00
27781;DHT22;15167;1.318;103.762;2023-05-21T04:40:10;28.00;1.00
27781;DHT22;15167;1.318;103.762;2023-05-21T04:42:37;28.10;1.00
27781;DHT22;15167;1.318;103.762;2023-05-21T04:45:03;28.20;99.90
27781;DHT22;15167;1.318;103.762;2023-05-21T04:47:29;28.40;99.90
27781;DHT22;15167;1.318;103.762;2023-05-21T04:50:00;28.60;99.90
27781;DHT22;15167;1.318;103.762;2023-05-21T04:52:26;28.80;99.90
27781;DHT22;15167;1.318;103.762;2023-05-21T04:54:53;28.80;99.90
27781;DHT22;15167;1.318;103.762;2023-05-21T04:57:19;28.70;99.90
27781;DHT22;15167;1.318;103.762;2023-05-21T04:59:46;28.30;99.90
27781;DHT22;15167;1.318;103.762;2023-05-21T05:02:12;28.00;99.90
27781;DHT22;15167;1.318;103.762;2023-05-21T05:04:38;27.80;99.90
27781;DHT22;15167;1.318;103.762;2023-05-21T05:07:04;27.70;99.90
27781;DHT22;15167;1.318;103.762;2023-05-21T05:09:30;27.70;99.90
27781;DHT22;15167;1.318;103.762;2023-05-21T05:11:56;27.90;99.90
27781;DHT22;15167;1.318;103.762;2023-05-21T05:14:23;27.90;99.90
27781;DHT22;15167;1.318;103.762;2023-05-21T05:16:49;27.90;99.90
27781;DHT22;15167;1.318;103.762;2023-05-21T05:19:15;27.80;99.90
27781;DHT22;15167;1.318;103.762;2023-05-21T05:21:41;27.90;99.90
27781;DHT22;15167;1.318;103.762;2023-05-21T05:24:07;28.00;99.90
27781;DHT22;15167;1.318;103.762;2023-05-21T05:26:33;27.80;99.90
27781;DHT22;15167;1.318;103.762;2023-05-21T05:28:59;27.80;99.90
27781;DHT22;15167;1.318;103.762;2023-05-21T05:31:25;28.00;99.90
27781;DHT22;15167;1.318;103.762;2023-05-21T05:33:52;28.30;99.90
27781;DHT22;15167;1.318;103.762;2023-05-21T05:36:18;28.50;99.90
27781;DHT22;15167;1.318;103.762;2023-05-21T05:38:44;28.60;99.90
27781;DHT22;15167;1.318;103.762;2023-05-21T05:41:10;29.00;99.90
27781;DHT22;15167;1.318;103.762;2023-05-21T05:43:36;29.20;99.90
27781;DHT22;15167;1.318;103.762;2023-05-21T05:46:02;29.50;99.90
27781;DHT22;15167;1.318;103.762;2023-05-21T05:48:28;29.70;99.90
27781;DHT22;15167;1.318;103.762;2023-05-21T05:50:55;29.80;99.90
27781;DHT22;15167;1.318;103.762;2023-05-21T05:53:21;29.90;99.90
27781;DHT22;15167;1.318;103.762;2023-05-21T05:55:47;29.80;99.90
27781;DHT22;15167;1.318;103.762;2023-05-21T05:58:14;29.70;99.90
27781;DHT22;15167;1.318;103.762;2023-05-21T06:00:40;29.60;99.90
27781;DHT22;15167;1.318;103.762;2023-05-21T06:03:06;29.40;99.90
27781;DHT22;15167;1.318;103.762;2023-05-21T06:05:32;29.30;99.90
27781;DHT22;15167;1.318;103.762;2023-05-21T06:07:58;29.30;99.90
27781;DHT22;15167;1.318;103.762;2023-05-21T06:10:25;29.40;99.90
27781;DHT22;15167;1.318;103.762;2023-05-21T06:12:51;29.40;99.90
27781;DHT22;15167;1.318;103.762;2023-05-21T06:15:17;29.20;99.90
27781;DHT22;15167;1.318;103.762;2023-05-21T06:17:44;29.00;99.90
27781;DHT22;15167;1.318;103.762;2023-05-21T06:20:10;28.70;99.90
27781;DHT22;15167;1.318;103.762;2023-05-21T06:22:36;28.50;99.90
27781;DHT22;15167;1.318;103.762;2023-05-21T06:25:03;28.30;99.90
27781;DHT22;15167;1.318;103.762;2023-05-21T06:27:29;28.30;99.90
27781;DHT22;15167;1.318;103.762;2023-05-21T06:29:55;28.40;99.90
27781;DHT22;15167;1.318;103.762;2023-05-21T06:32:22;28.40;99.90
27781;DHT22;15167;1.318;103.762;2023-05-21T06:34:48;28.60;99.90
27781;DHT22;15167;1.318;103.762;2023-05-21T06:37:17;28.70;99.90
27781;DHT22;15167;1.318;103.762;2023-05-21T06:39:43;28.80;99.90
27781;DHT22;15167;1.318;103.762;2023-05-21T06:42:09;28.80;99.90
27781;DHT22;15167;1.318;103.762;2023-05-21T06:44:35;28.90;99.90
27781;DHT22;15167;1.318;103.762;2023-05-21T06:47:02;28.70;99.90
27781;DHT22;15167;1.318;103.762;2023-05-21T06:49:28;28.60;99.90
27781;DHT22;15167;1.318;103.762;2023-05-21T06:51:54;28.40;99.90
27781;DHT22;15167;1.318;103.762;2023-05-21T06:54:20;28.40;99.90
27781;DHT22;15167;1.318;103.762;2023-05-21T06:56:46;28.40;99.90
27781;DHT22;15167;1.318;103.762;2023-05-21T06:59:13;28.10;99.90
27781;DHT22;15167;1.318;103.762;2023-05-21T07:01:39;28.00;99.90
27781;DHT22;15167;1.318;103.762;2023-05-21T07:04:07;27.90;99.90
27781;DHT22;15167;1.318;103.762;2023-05-21T07:06:34;27.70;99.90
27781;DHT22;15167;1.318;103.762;2023-05-21T07:09:00;27.70;99.90
27781;DHT22;15167;1.318;103.762;2023-05-21T07:11:26;27.80;99.90
27781;DHT22;15167;1.318;103.762;2023-05-21T07:13:53;27.90;99.90
27781;DHT22;15167;1.318;103.762;2023-05-21T07:16:21;28.10;99.90
27781;DHT22;15167;1.318;103.762;2023-05-21T07:18:47;28.20;99.90
27781;DHT22;15167;1.318;103.762;2023-05-21T07:21:13;28.30;99.90
27781;DHT22;15167;1.318;103.762;2023-05-21T07:23:39;28.40;99.90
27781;DHT22;15167;1.318;103.762;2023-05-21T07:26:05;28.30;99.90
27781;DHT22;15167;1.318;103.762;2023-05-21T07:28:31;28.40;99.90
27781;DHT22;15167;1.318;103.762;2023-05-21T07:30:57;28.40;99.90
27781;DHT22;15167;1.318;103.762;2023-05-21T07:33:23;28.50;99.90
27781;DHT22;15167;1.318;103.762;2023-05-21T07:35:50;28.50;99.90
27781;DHT22;15167;1.318;103.762;2023-05-21T07:38:16;28.50;99.90
27781;DHT22;15167;1.318;103.762;2023-05-21T07:40:42;28.50;99.90
27781;DHT22;15167;1.318;103.762;2023-05-21T07:43:08;28.60;99.90
27781;DHT22;15167;1.318;103.762;2023-05-21T07:45:34;28.60;99.90
27781;DHT22;15167;1.318;103.762;2023-05-21T07:48:00;28.60;99.90
27781;DHT22;15167;1.318;103.762;2023-05-21T07:50:27;28.70;99.90
27781;DHT22;15167;1.318;103.762;2023-05-21T07:52:53;28.70;99.90
27781;DHT22;15167;1.318;103.762;2023-05-21T07:55:19;28.70;99.90
27781;DHT22;15167;1.318;103.762;2023-05-21T07:57:45;28.70;99.90
27781;DHT22;15167;1.318;103.762;2023-05-21T08:00:12;28.60;99.90
27781;DHT22;15167;1.318;103.762;2023-05-21T08:02:38;28.70;99.90
27781;DHT22;15167;1.318;103.762;2023-05-21T08:05:05;28.80;99.90
27781;DHT22;15167;1.318;103.762;2023-05-21T08:07:31;28.80;99.90
27781;DHT22;15167;1.318;103.762;2023-05-21T08:09:57;28.80;99.90
27781;DHT22;15167;1.318;103.762;2023-05-21T08:12:23;28.80;99.90
27781;DHT22;15167;1.318;103.762;2023-05-21T08:14:50;28.70;99.90
27781;DHT22;15167;1.318;103.762;2023-05-21T08:17:16;28.50;99.90
27781;DHT22;15167;1.318;103.762;2023-05-21T08:19:42;28.30;99.90
27781;DHT22;15167;1.318;103.762;2023-05-21T08:22:08;28.00;99.90
27781;DHT22;15167;1.318;103.762;2023-05-21T08:24:34;27.90;99.90
27781;DHT22;15167;1.318;103.762;2023-05-21T08:27:00;27.70;1.00
27781;DHT22;15167;1.318;103.762;2023-05-21T08:29:27;27.60;1.00
27781;DHT22;15167;1.318;103.762;2023-05-21T08:31:53;27.80;1.00
27781;DHT22;15167;1.318;103.762;2023-05-21T08:34:19;28.00;1.00
27781;DHT22;15167;1.318;103.762;2023-05-21T08:36:45;28.10;1.00
27781;DHT22;15167;1.318;103.762;2023-05-21T08:39:12;28.20;1.00
27781;DHT22;15167;1.318;103.762;2023-05-21T08:41:38;28.30;1.00
27781;DHT22;15167;1.318;103.762;2023-05-21T08:44:06;28.30;99.90
27781;DHT22;15167;1.318;103.762;2023-05-21T08:46:35;28.30;99.90
27781;DHT22;15167;1.318;103.762;2023-05-21T08:49:05;28.40;99.90
27781;DHT22;15167;1.318;103.762;2023-05-21T08:51:31;28.30;99.90
27781;DHT22;15167;1.318;103.762;2023-05-21T08:53:58;28.20;1.00
27781;DHT22;15167;1.318;103.762;2023-05-21T08:56:24;28.00;1.00
27781;DHT22;15167;1.318;103.762;2023-05-21T08:58:51;27.80;1.00
27781;DHT22;15167;1.318;103.762;2023-05-21T09:01:17;27.70;1.00
27781;DHT22;15167;1.318;103.762;2023-05-21T09:03:43;27.60;1.00
27781;DHT22;15167;1.318;103.762;2023-05-21T09:06:11;27.70;1.00
27781;DHT22;15167;1.318;103.762;2023-05-21T09:08:41;27.80;1.00
27781;DHT22;15167;1.318;103.762;2023-05-21T09:11:08;27.90;1.00
27781;DHT22;15167;1.318;103.762;2023-05-21T09:13:34;28.00;1.00
27781;DHT22;15167;1.318;103.762;2023-05-21T09:16:02;28.10;1.00
27781;DHT22;15167;1.318;103.762;2023-05-21T09:18:29;28.20;1.00
27781;DHT22;15167;1.318;103.762;2023-05-21T09:20:55;28.20;99.90
27781;DHT22;15167;1.318;103.762;2023-05-21T09:23:21;28.30;99.90
27781;DHT22;15167;1.318;103.762;2023-05-21T09:25:47;28.30;99.90
27781;DHT22;15167;1.318;103.762;2023-05-21T09:28:14;28.20;99.90
27781;DHT22;15167;1.318;103.762;2023-05-21T09:30:47;28.20;99.90
27781;DHT22;15167;1.318;103.762;2023-05-21T09:33:23;28.20;99.90
27781;DHT22;15167;1.318;103.762;2023-05-21T09:35:50;28.30;99.90
27781;DHT22;15167;1.318;103.762;2023-05-21T09:38:16;28.30;99.90
27781;DHT22;15167;1.318;103.762;2023-05-21T09:40:43;28.30;99.90
27781;DHT22;15167;1.318;103.762;2023-05-21T09:43:13;28.40;99.90
27781;DHT22;15167;1.318;103.762;2023-05-21T09:45:49;28.40;99.90
27781;DHT22;15167;1.318;103.762;2023-05-21T09:48:15;28.40;99.90
27781;DHT22;15167;1.318;103.762;2023-05-21T09:50:41;28.40;99.90
27781;DHT22;15167;1.318;103.762;2023-05-21T09:53:11;28.40;99.90
27781;DHT22;15167;1.318;103.762;2023-05-21T09:55:38;28.40;99.90
27781;DHT22;15167;1.318;103.762;2023-05-21T09:58:04;28.20;99.90
27781;DHT22;15167;1.318;103.762;2023-05-21T10:00:30;28.20;99.90
27781;DHT22;15167;1.318;103.762;2023-05-21T10:02:59;28.10;99.90
27781;DHT22;15167;1.318;103.762;2023-05-21T10:05:26;28.10;99.90
27781;DHT22;15167;1.318;103.762;2023-05-21T10:08:02;28.10;99.90
27781;DHT22;15167;1.318;103.762;2023-05-21T10:10:29;28.10;99.90
27781;DHT22;15167;1.318;103.762;2023-05-21T10:12:59;28.10;99.90
27781;DHT22;15167;1.318;103.762;2023-05-21T10:15:26;28.10;99.90
27781;DHT22;15167;1.318;103.762;2023-05-21T10:17:53;28.00;99.90
27781;DHT22;15167;1.318;103.762;2023-05-21T10:20:20;28.00;99.90
27781;DHT22;15167;1.318;103.762;2023-05-21T10:22:47;27.90;99.90
27781;DHT22;15167;1.318;103.762;2023-05-21T10:25:14;27.90;99.90
27781;DHT22;15167;1.318;103.762;2023-05-21T10:27:40;27.90;99.90
27781;DHT22;15167;1.318;103.762;2023-05-21T10:30:06;27.90;99.90
27781;DHT22;15167;1.318;103.762;2023-05-21T10:32:33;27.90;99.90
27781;DHT22;15167;1.318;103.762;2023-05-21T10:34:59;27.90;99.90
27781;DHT22;15167;1.318;103.762;2023-05-21T10:37:27;27.90;99.90
27781;DHT22;15167;1.318;103.762;2023-05-21T10:39:54;27.80;99.90
27781;DHT22;15167;1.318;103.762;2023-05-21T10:45:07;27.70;99.90
27781;DHT22;15167;1.318;103.762;2023-05-21T10:53:19;27.60;99.90
27781;DHT22;15167;1.318;103.762;2023-05-21T10:55:52;27.50;99.90
27781;DHT22;15167;1.318;103.762;2023-05-21T11:00:49;27.50;99.90
27781;DHT22;15167;1.318;103.762;2023-05-21T11:03:17;27.50;99.90
27781;DHT22;15167;1.318;103.762;2023-05-21T11:05:51;27.40;99.90
27781;DHT22;15167;1.318;103.762;2023-05-21T11:08:26;27.40;99.90
27781;DHT22;15167;1.318;103.762;2023-05-21T11:10:55;27.30;99.90
27781;DHT22;15167;1.318;103.762;2023-05-21T11:13:23;27.30;99.90
27781;DHT22;15167;1.318;103.762;2023-05-21T11:21:02;27.30;99.90
27781;DHT22;15167;1.318;103.762;2023-05-21T11:26:24;27.40;99.90
27781;DHT22;15167;1.318;103.762;2023-05-21T11:29:11;27.30;99.90
27781;DHT22;15167;1.318;103.762;2023-05-21T11:31:37;27.30;99.90
27781;DHT22;15167;1.318;103.762;2023-05-21T11:34:12;27.30;99.90
27781;DHT22;15167;1.318;103.762;2023-05-21T11:36:45;27.40;99.90
27781;DHT22;15167;1.318;103.762;2023-05-21T11:39:15;27.30;99.90
27781;DHT22;15167;1.318;103.762;2023-05-21T11:41:50;27.30;99.90
27781;DHT22;15167;1.318;103.762;2023-05-21T11:44:16;27.30;99.90
27781;DHT22;15167;1.318;103.762;2023-05-21T11:46:42;27.40;99.90
27781;DHT22;15167;1.318;103.762;2023-05-21T11:49:08;27.30;99.90
27781;DHT22;15167;1.318;103.762;2023-05-21T11:51:35;27.40;99.90
27781;DHT22;15167;1.318;103.762;2023-05-21T11:54:01;27.40;99.90
27781;DHT22;15167;1.318;103.762;2023-05-21T11:56:27;27.40;99.90
27781;DHT22;15167;1.318;103.762;2023-05-21T11:58:56;27.40;99.90
27781;DHT22;15167;1.318;103.762;2023-05-21T12:01:22;27.40;99.90
27781;DHT22;15167;1.318;103.762;2023-05-21T12:03:49;27.40;99.90
27781;DHT22;15167;1.318;103.762;2023-05-21T12:06:15;27.30;99.90
27781;DHT22;15167;1.318;103.762;2023-05-21T12:08:42;27.30;99.90
27781;DHT22;15167;1.318;103.762;2023-05-21T12:11:10;27.30;99.90
27781;DHT22;15167;1.318;103.762;2023-05-21T12:13:36;27.30;99.90
27781;DHT22;15167;1.318;103.762;2023-05-21T12:16:02;27.30;99.90
27781;DHT22;15167;1.318;103.762;2023-05-21T12:18:29;27.30;99.90
27781;DHT22;15167;1.318;103.762;2023-05-21T12:20:56;27.30;99.90
27781;DHT22;15167;1.318;103.762;2023-05-21T12:23:22;27.30;99.90
27781;DHT22;15167;1.318;103.762;2023-05-21T12:25:49;27.20;99.90
27781;DHT22;15167;1.318;103.762;2023-05-21T12:28:15;27.20;99.90
27781;DHT22;15167;1.318;103.762;2023-05-21T12:30:41;27.20;99.90
27781;DHT22;15167;1.318;103.762;2023-05-21T12:33:08;27.20;99.90
27781;DHT22;15167;1.318;103.762;2023-05-21T12:35:36;27.20;99.90
27781;DHT22;15167;1.318;103.762;2023-05-21T12:38:02;27.20;99.90
27781;DHT22;15167;1.318;103.762;2023-05-21T12:40:35;27.20;99.90
27781;DHT22;15167;1.318;103.762;2023-05-21T12:43:02;27.20;99.90
27781;DHT22;15167;1.318;103.762;2023-05-21T12:45:29;27.20;99.90
27781;DHT22;15167;1.318;103.762;2023-05-21T12:47:56;27.20;99.90
27781;DHT22;15167;1.318;103.762;2023-05-21T12:50:22;27.20;99.90
27781;DHT22;15167;1.318;103.762;2023-05-21T12:52:48;27.20;99.90
27781;DHT22;15167;1.318;103.762;2023-05-21T12:55:14;27.30;99.90
27781;DHT22;15167;1.318;103.762;2023-05-21T12:57:41;27.30;99.90
27781;DHT22;15167;1.318;103.762;2023-05-21T13:00:08;27.30;99.90
27781;DHT22;15167;1.318;103.762;2023-05-21T13:02:39;27.30;1.00
27781;DHT22;15167;1.318;103.762;2023-05-21T13:05:06;27.30;1.00
27781;DHT22;15167;1.318;103.762;2023-05-21T13:07:33;27.30;1.00
27781;DHT22;15167;1.318;103.762;2023-05-21T13:10:00;27.20;1.00
27781;DHT22;15167;1.318;103.762;2023-05-21T13:12:27;27.20;1.00
27781;DHT22;15167;1.318;103.762;2023-05-21T13:14:55;27.20;1.00
27781;DHT22;15167;1.318;103.762;2023-05-21T13:17:22;27.20;1.00
27781;DHT22;15167;1.318;103.762;2023-05-21T13:22:34;27.20;1.00
27781;DHT22;15167;1.318;103.762;2023-05-21T13:25:01;27.20;1.00
27781;DHT22;15167;1.318;103.762;2023-05-21T13:27:27;27.20;1.00
27781;DHT22;15167;1.318;103.762;2023-05-21T13:29:53;27.20;1.00
27781;DHT22;15167;1.318;103.762;2023-05-21T13:32:19;27.20;1.00
27781;DHT22;15167;1.318;103.762;2023-05-21T13:34:45;27.20;1.00
27781;DHT22;15167;1.318;103.762;2023-05-21T13:37:12;27.20;1.00
27781;DHT22;15167;1.318;103.762;2023-05-21T13:39:38;27.10;1.00
27781;DHT22;15167;1.318;103.762;2023-05-21T13:42:05;27.10;1.00
27781;DHT22;15167;1.318;103.762;2023-05-21T13:44:31;27.10;1.00
27781;DHT22;15167;1.318;103.762;2023-05-21T13:47:01;27.10;1.00
27781;DHT22;15167;1.318;103.762;2023-05-21T13:49:28;27.20;1.00
27781;DHT22;15167;1.318;103.762;2023-05-21T13:51:54;27.20;1.00
27781;DHT22;15167;1.318;103.762;2023-05-21T13:54:20;27.20;1.00
27781;DHT22;15167;1.318;103.762;2023-05-21T13:56:46;27.20;1.00
27781;DHT22;15167;1.318;103.762;2023-05-21T13:59:12;27.20;1.00
27781;DHT22;15167;1.318;103.762;2023-05-21T14:01:39;27.20;1.00
27781;DHT22;15167;1.318;103.762;2023-05-21T14:04:05;27.20;1.00
27781;DHT22;15167;1.318;103.762;2023-05-21T14:06:31;27.20;1.00
27781;DHT22;15167;1.318;103.762;2023-05-21T14:08:58;27.20;1.00
27781;DHT22;15167;1.318;103.762;2023-05-21T14:11:24;27.20;1.00
27781;DHT22;15167;1.318;103.762;2023-05-21T14:13:51;27.20;1.00
27781;DHT22;15167;1.318;103.762;2023-05-21T14:16:18;27.20;1.00
27781;DHT22;15167;1.318;103.762;2023-05-21T14:18:44;27.20;1.00
27781;DHT22;15167;1.318;103.762;2023-05-21T14:21:10;27.20;1.00
27781;DHT22;15167;1.318;103.762;2023-05-21T14:23:36;27.20;1.00
27781;DHT22;15167;1.318;103.762;2023-05-21T14:26:02;27.20;1.00
27781;DHT22;15167;1.318;103.762;2023-05-21T14:28:28;27.20;1.00
27781;DHT22;15167;1.318;103.762;2023-05-21T14:30:54;27.20;1.00
27781;DHT22;15167;1.318;103.762;2023-05-21T14:33:21;27.20;1.00
27781;DHT22;15167;1.318;103.762;2023-05-21T14:35:47;27.10;1.00
27781;DHT22;15167;1.318;103.762;2023-05-21T14:38:13;27.20;1.00
27781;DHT22;15167;1.318;103.762;2023-05-21T14:40:39;27.10;1.00
27781;DHT22;15167;1.318;103.762;2023-05-21T14:43:05;27.10;1.00
27781;DHT22;15167;1.318;103.762;2023-05-21T14:45:31;27.10;1.00
27781;DHT22;15167;1.318;103.762;2023-05-21T14:48:02;27.10;1.00
27781;DHT22;15167;1.318;103.762;2023-05-21T14:50:38;27.10;1.00
27781;DHT22;15167;1.318;103.762;2023-05-21T14:53:07;27.10;1.00
27781;DHT22;15167;1.318;103.762;2023-05-21T14:55:34;27.10;1.00
27781;DHT22;15167;1.318;103.762;2023-05-21T14:58:01;27.10;1.00
27781;DHT22;15167;1.318;103.762;2023-05-21T15:00:28;27.10;1.00
27781;DHT22;15167;1.318;103.762;2023-05-21T15:02:55;27.10;1.00
27781;DHT22;15167;1.318;103.762;2023-05-21T15:05:24;27.10;1.00
27781;DHT22;15167;1.318;103.762;2023-05-21T15:07:50;27.10;1.00
27781;DHT22;15167;1.318;103.762;2023-05-21T15:10:16;27.10;1.00
27781;DHT22;15167;1.318;103.762;2023-05-21T15:12:43;27.10;1.00
27781;DHT22;15167;1.318;103.762;2023-05-21T15:15:09;27.10;1.00
27781;DHT22;15167;1.318;103.762;2023-05-21T15:17:36;27.10;1.00
27781;DHT22;15167;1.318;103.762;2023-05-21T15:20:03;27.10;1.00
27781;DHT22;15167;1.318;103.762;2023-05-21T15:22:29;27.10;1.00
27781;DHT22;15167;1.318;103.762;2023-05-21T15:24:55;27.10;1.00
27781;DHT22;15167;1.318;103.762;2023-05-21T15:27:22;27.10;1.00
27781;DHT22;15167;1.318;103.762;2023-05-21T15:29:49;27.10;1.00
27781;DHT22;15167;1.318;103.762;2023-05-21T15:32:15;27.00;1.00
27781;DHT22;15167;1.318;103.762;2023-05-21T15:34:41;27.10;1.00
27781;DHT22;15167;1.318;103.762;2023-05-21T15:37:08;27.10;1.00
27781;DHT22;15167;1.318;103.762;2023-05-21T15:39:34;27.10;1.00